Portada
METAR-TAF:

METAR-TAF

Aeroports :

Lilongwe, Malawi

latitud: 13-47S, longitud: 033-46E, altitud: 1229 m

Observació

L'informe es va fer fa 1 hora i 22 minuts, a les 07:00 UTC
Vent 10 kt del Est/Sud-Est
Temperatura 23°C
Humitat 65%
Pressió 1021 hPa
Visibilitat 10 km o més
Escasses núvols a una alçada de 2500 ft

METAR: FWKI 300700Z 11010KT 9999 FEW025 23/16 Q1021 NOSIG

Hora: 10:22 (08:22 UTC)

Pronòstic

L'informe es va fer fa 4 hores i 2 minuts, a les 04:20 UTC
Pronòstic vàlid del 30 a les 06 UTC al 31 a les 12 UTC
Vent 4 kt del Sud
Visibilitat 10 km o més
Escasses núvols a una alçada de 2000 ft, Cumulonimbus.
A partir de les 30 a les 0800 UTC
Vent 10 kt del Sud/Sud-Est
Visibilitat 10 km o més
Escasses núvols a una alçada de 3000 ft
A partir de les 30 a les 1500 UTC
Vent 6 kt del Est/Nord-Est
Visibilitat 10 km o més
sense núvols per sota de 1500 mi sense presència de cumulonimbus.

TAF: FWKI 300420Z 3006/3112 19004KT 9999 FEW020CB FM300800 15010KT 9999 FEW030 FM301500 07006KT CAVOK

Observacions i pronòstics meteorològics de més de 4000 aeroports (METAR i TAF).

Les estacions disponibles són els punts grocs i vermells al mapa.

Posi el ratolí al punt desitjat per veure el nom de l'estació.

Feu clic per veure les observacions i els pronòstics meteorològics.

Per canviar el mapa: feu clic els botons verds amb una creu de color negre per apropar; al botó verd amb un guió per allunyar la imatge; o en les fletxes verdes per a mapes adjacents.


METAR-TAF: